Clyde, Missouri
Current Conditions -  °F | °C
As of 10:55 AM on Friday 28 Nov 2014 (Local Time) from KICL Reporting Station
Clear Clear  
Wind Chill: 36°   Ceiling: Unl
Heat Index: 43°   Visibility: 10mi
Dew Point: 28°   Wind: 14mph
Humidity: 57%   Direction: 180°S
Pressure: 29.88"   Gusts: NA
Location:  40.27°N, 94.67°W
Report Text: KICL 281655Z AUTO 18012KT 10SM CLR 06/M02 A2988 RMK AO2
Loading
Personal Weather Stations






























Interactive Weather Map New forecast layout! Learn more

10-Day Weather Forecast

Advertisements
Track Severe Weather on mobile